Time;durP1;ratioP1;P1;durP2;ratioP2;P2;SDS_P1;SDS_P2;PMS_P1;PMS_P2;Temp;Humidity;BMP_temperature;BMP_pressure;BME280_temperature;BME280_humidity;BME280_pressure;Samples;Min_cycle;Max_cycle;Signal;HPM_P1;HPM_P2
2022/12/16 00:01:03;;;;;;;40.47;29.37;;;;;;;;;;5071190;28;20453;-76
2022/12/16 00:03:30;;;;;;;46.33;32.80;;;;;;;;;;5075632;28;21084;-76
2022/12/16 00:05:57;;;;;;;42.77;30.03;;;;;;;;;;5074856;28;20461;-75
2022/12/16 00:08:24;;;;;;;41.97;31.27;;;;;;;;;;5073669;28;20452;-76
2022/12/16 00:10:57;;;;;;;42.77;31.00;;;;;;;;;;5072471;28;20455;-77
2022/12/16 00:13:24;;;;;;;47.17;29.87;;;;;;;;;;5074088;28;20447;-76
2022/12/16 00:15:51;;;;;;;45.37;33.30;;;;;;;;;;5092563;28;20789;-76
2022/12/16 00:18:18;;;;;;;45.07;31.40;;;;;;;;;;5092772;28;20443;-76
2022/12/16 00:20:46;;;;;;;46.43;31.43;;;;;;;;;;5091496;28;20518;-77
2022/12/16 00:23:13;;;;;;;46.20;31.97;;;;;;;;;;5090185;28;20446;-76
2022/12/16 00:25:41;;;;;;;47.43;31.20;;;;;;;;;;5090795;28;20467;-76
2022/12/16 00:28:10;;;;;;;44.60;30.13;;;;;;;;;;5091490;28;20458;-76
2022/12/16 00:30:37;;;;;;;42.53;29.03;;;;;;;;;;5091556;28;20456;-76
2022/12/16 00:33:04;;;;;;;43.90;30.80;;;;;;;;;;5091413;28;20440;-75
2022/12/16 00:35:32;;;;;;;47.77;32.47;;;;;;;;;;5089896;28;20447;-76
2022/12/16 00:37:59;;;;;;;43.90;30.60;;;;;;;;;;5107288;28;20454;-77
2022/12/16 00:40:26;;;;;;;46.17;31.53;;;;;;;;;;5090659;28;21321;-77
2022/12/16 00:42:53;;;;;;;50.00;32.10;;;;;;;;;;5076141;28;21032;-75
2022/12/16 00:45:21;;;;;;;41.33;28.70;;;;;;;;;;5071241;28;20448;-76
2022/12/16 00:47:49;;;;;;;56.87;31.70;;;;;;;;;;5070710;28;20453;-77
2022/12/16 00:50:17;;;;;;;48.77;31.70;;;;;;;;;;5070548;28;20448;-76
2022/12/16 00:52:44;;;;;;;45.43;31.90;;;;;;;;;;5073376;28;20452;-75
2022/12/16 00:55:12;;;;;;;45.83;31.60;;;;;;;;;;5088525;28;20844;-77
2022/12/16 00:57:39;;;;;;;47.70;33.07;;;;;;;;;;5096118;28;20865;-77
2022/12/16 01:00:08;;;;;;;45.87;30.90;;;;;;;;;;5110454;28;20990;-76
2022/12/16 01:02:36;;;;;;;44.67;30.90;;;;;;;;;;5110405;28;20458;-78
2022/12/16 01:05:03;;;;;;;46.23;30.07;;;;;;;;;;5112479;28;20758;-77
2022/12/16 01:07:30;;;;;;;44.60;30.27;;;;;;;;;;5110043;28;21063;-77
2022/12/16 01:09:57;;;;;;;46.60;32.03;;;;;;;;;;5110545;28;20442;-77
2022/12/16 01:12:24;;;;;;;45.30;31.83;;;;;;;;;;5110360;28;20447;-76
2022/12/16 01:14:51;;;;;;;46.40;30.37;;;;;;;;;;5092641;28;20447;-75
2022/12/16 01:17:18;;;;;;;47.07;31.47;;;;;;;;;;5089390;28;20471;-76
2022/12/16 01:19:46;;;;;;;52.53;35.03;;;;;;;;;;5089640;28;20849;-75
2022/12/16 01:22:14;;;;;;;42.80;29.80;;;;;;;;;;5089127;28;20455;-75
2022/12/16 01:24:41;;;;;;;46.13;30.17;;;;;;;;;;5088741;28;20448;-76
2022/12/16 01:27:08;;;;;;;49.93;30.77;;;;;;;;;;5089579;28;20463;-75
2022/12/16 01:29:35;;;;;;;45.87;31.27;;;;;;;;;;5087745;28;20440;-75
2022/12/16 01:32:02;;;;;;;46.53;30.27;;;;;;;;;;5087367;28;20915;-76
2022/12/16 01:34:29;;;;;;;44.10;29.80;;;;;;;;;;5092214;28;20455;-75
2022/12/16 01:36:57;;;;;;;43.00;29.10;;;;;;;;;;5092577;28;20994;-76
2022/12/16 01:39:26;;;;;;;47.63;30.13;;;;;;;;;;5092688;28;20979;-76
2022/12/16 01:41:53;;;;;;;44.00;28.80;;;;;;;;;;5092951;28;20454;-76
2022/12/16 01:44:21;;;;;;;47.63;31.50;;;;;;;;;;5091837;28;20453;-77
2022/12/16 01:46:50;;;;;;;49.57;30.87;;;;;;;;;;5096555;28;20938;-76
2022/12/16 01:49:30;;;;;;;44.13;29.83;;;;;;;;;;5088330;28;20455;-77
2022/12/16 01:51:59;;;;;;;44.40;31.17;;;;;;;;;;5100346;28;20454;-76
2022/12/16 01:54:28;;;;;;;46.10;30.30;;;;;;;;;;5118888;28;20435;-76
2022/12/16 01:56:57;;;;;;;47.33;31.27;;;;;;;;;;5129914;28;20447;-75
2022/12/16 01:59:26;;;;;;;41.00;29.40;;;;;;;;;;5132878;28;20470;-76
2022/12/16 02:01:53;;;;;;;44.00;31.03;;;;;;;;;;5125422;28;20497;-75
2022/12/16 02:04:20;;;;;;;42.30;29.60;;;;;;;;;;5122850;28;20447;-75
2022/12/16 02:06:48;;;;;;;45.00;29.07;;;;;;;;;;5122567;28;20466;-76
2022/12/16 02:09:17;;;;;;;49.90;31.80;;;;;;;;;;5122790;28;20473;-76
2022/12/16 02:12:07;;;;;;;43.20;30.67;;;;;;;;;;5118464;28;20872;-76
2022/12/16 02:14:58;;;;;;;48.07;31.07;;;;;;;;;;5106319;28;20432;-76
2022/12/16 02:17:28;;;;;;;46.67;31.07;;;;;;;;;;5097984;28;20468;-75
2022/12/16 02:20:07;;;;;;;44.43;31.80;;;;;;;;;;5094623;28;20459;-76
2022/12/16 02:22:39;;;;;;;48.20;31.10;;;;;;;;;;5091782;28;20424;-76
2022/12/16 02:25:22;;;;;;;44.57;29.23;;;;;;;;;;5091959;28;20428;-76
2022/12/16 02:27:56;;;;;;;43.60;29.97;;;;;;;;;;5092237;28;20491;-75
2022/12/16 02:30:39;;;;;;;43.00;28.53;;;;;;;;;;5091971;28;20435;-76
2022/12/16 02:33:13;;;;;;;48.27;31.33;;;;;;;;;;5091826;28;20420;-75
2022/12/16 02:35:42;;;;;;;45.90;32.20;;;;;;;;;;5092047;28;20510;-74
2022/12/16 02:38:15;;;;;;;46.93;32.87;;;;;;;;;;5093061;28;20514;-76
2022/12/16 02:40:43;;;;;;;40.80;29.60;;;;;;;;;;5095307;28;20475;-76
2022/12/16 02:43:15;;;;;;;45.17;29.73;;;;;;;;;;5071259;28;20444;-75
2022/12/16 02:45:44;;;;;;;40.17;30.23;;;;;;;;;;5071492;28;20464;-76
2022/12/16 02:48:11;;;;;;;44.63;31.30;;;;;;;;;;5071793;28;20453;-76
2022/12/16 02:50:41;;;;;;;43.23;29.40;;;;;;;;;;5071771;28;20440;-75
2022/12/16 02:53:10;;;;;;;47.70;32.70;;;;;;;;;;5073246;28;20460;-76
2022/12/16 02:55:45;;;;;;;42.57;28.83;;;;;;;;;;5073865;28;20491;-76
2022/12/16 02:58:16;;;;;;;47.47;31.33;;;;;;;;;;5073492;28;20432;-77
2022/12/16 03:00:52;;;;;;;42.30;29.90;;;;;;;;;;5072630;28;20477;-77
2022/12/16 03:03:20;;;;;;;42.63;29.87;;;;;;;;;;5071807;28;20444;-75
2022/12/16 03:05:49;;;;;;;46.73;31.07;;;;;;;;;;5071475;28;20468;-76
2022/12/16 03:08:19;;;;;;;40.80;28.93;;;;;;;;;;5071275;28;20498;-76
2022/12/16 03:10:47;;;;;;;43.23;29.13;;;;;;;;;;5071008;28;20483;-77
2022/12/16 03:13:16;;;;;;;41.17;29.70;;;;;;;;;;5070493;28;20436;-77
2022/12/16 03:15:44;;;;;;;40.37;29.17;;;;;;;;;;5070881;28;20457;-76
2022/12/16 03:18:14;;;;;;;40.33;28.60;;;;;;;;;;5070840;28;20827;-76
2022/12/16 03:20:42;;;;;;;42.50;28.63;;;;;;;;;;5070247;28;20967;-76
2022/12/16 03:23:11;;;;;;;45.90;30.27;;;;;;;;;;5070360;28;20452;-77
2022/12/16 03:25:41;;;;;;;40.73;28.87;;;;;;;;;;5070628;28;20479;-76
2022/12/16 03:28:12;;;;;;;45.87;30.00;;;;;;;;;;5070925;28;20449;-77
2022/12/16 03:30:42;;;;;;;42.27;30.40;;;;;;;;;;5070426;28;20437;-76
2022/12/16 03:33:13;;;;;;;46.30;31.03;;;;;;;;;;5070185;28;20452;-77
2022/12/16 03:35:43;;;;;;;43.50;29.90;;;;;;;;;;5070613;28;20464;-76
2022/12/16 03:38:11;;;;;;;42.13;29.23;;;;;;;;;;5070249;28;20444;-76
2022/12/16 03:40:39;;;;;;;39.30;29.10;;;;;;;;;;5070630;28;20483;-78
2022/12/16 03:43:07;;;;;;;41.80;28.80;;;;;;;;;;5069928;28;20440;-76
2022/12/16 03:45:37;;;;;;;40.17;30.00;;;;;;;;;;5070548;28;20453;-76
2022/12/16 03:48:04;;;;;;;45.57;29.87;;;;;;;;;;5070533;28;20452;-75
2022/12/16 03:50:33;;;;;;;40.10;28.40;;;;;;;;;;5070520;28;20447;-76
2022/12/16 03:53:01;;;;;;;38.90;27.33;;;;;;;;;;5069843;28;20460;-76
2022/12/16 03:55:29;;;;;;;47.10;26.90;;;;;;;;;;5070079;28;20449;-77
2022/12/16 03:57:56;;;;;;;35.80;27.00;;;;;;;;;;5071429;28;20440;-77
2022/12/16 04:00:23;;;;;;;34.97;26.40;;;;;;;;;;5070349;28;21208;-75
2022/12/16 04:02:50;;;;;;;38.90;26.53;;;;;;;;;;5070284;28;20456;-75
2022/12/16 04:05:17;;;;;;;37.07;25.63;;;;;;;;;;5070523;28;20444;-75
2022/12/16 04:07:44;;;;;;;38.50;26.70;;;;;;;;;;5071099;28;20449;-76
2022/12/16 04:10:13;;;;;;;37.57;25.93;;;;;;;;;;5070879;28;20448;-76
2022/12/16 04:27:23;;;;;;;33.87;23.00;;;;;;;;;;5081915;28;20467;-77
2022/12/16 04:29:17;;;;;;;33.13;22.93;;;;;;;;;;5080703;28;20459;-76
2022/12/16 04:31:45;;;;;;;34.93;24.53;;;;;;;;;;5081995;28;20437;-77
2022/12/16 04:34:27;;;;;;;32.40;21.83;;;;;;;;;;5088970;28;20448;-75
